createdAt,value
2022-08-22T00:01:26.393Z,99741.31
2022-08-22T00:02:47.664Z,99877.44
2022-08-22T00:02:54.996Z,99769.91
2022-08-22T00:05:23.994Z,99735.63
2022-08-22T00:09:11.148Z,99730.66
2022-08-22T00:13:24.593Z,99725.56
2022-08-22T00:16:56.763Z,99731.69
2022-08-22T00:20:54.230Z,99727.41
2022-08-22T00:24:24.776Z,99730.31
2022-08-22T00:27:51.054Z,99732.16
2022-08-22T00:31:33.613Z,99732.72
2022-08-22T00:35:00.394Z,99744.66
2022-08-22T00:38:32.734Z,99733.19
2022-08-22T00:41:58.874Z,99734.22
2022-08-22T00:45:19.714Z,99738.50
2022-08-22T00:48:35.254Z,99733.78
2022-08-22T00:52:01.095Z,99732.16
2022-08-22T00:55:15.814Z,99734.00
2022-08-22T00:58:44.316Z,99739.31
2022-08-22T01:02:19.374Z,99737.25
2022-08-22T01:05:55.435Z,99731.56
2022-08-22T01:09:29.339Z,99726.81
2022-08-22T01:13:16.975Z,99722.53
2022-08-22T01:16:48.733Z,99728.31
2022-08-22T01:20:17.955Z,99719.28
2022-08-22T01:23:45.734Z,99725.44
2022-08-22T01:27:32.814Z,99721.13
2022-08-22T01:31:12.635Z,99720.09
2022-08-22T01:34:56.885Z,99706.56
2022-08-22T01:38:47.022Z,99713.38
2022-08-22T01:42:22.674Z,99725.19
2022-08-22T01:45:53.394Z,99725.78
2022-08-22T01:49:19.853Z,99718.63
2022-08-22T01:52:48.297Z,99724.97
2022-08-22T01:56:08.913Z,99723.12
2022-08-22T01:59:42.226Z,99719.66
2022-08-22T02:03:15.494Z,99717.81
2022-08-22T02:06:40.537Z,99710.63
2022-08-22T02:10:09.314Z,99712.47
2022-08-22T02:13:15.648Z,99713.50
2022-08-22T02:16:43.612Z,99711.66
2022-08-22T02:20:14.178Z,99705.53
2022-08-22T02:23:55.943Z,99703.69
2022-08-22T02:27:23.574Z,99702.63
2022-08-22T02:31:00.793Z,99698.13
2022-08-22T02:34:31.995Z,99699.97
2022-08-22T02:38:01.674Z,99701.38
2022-08-22T02:41:25.413Z,99699.28
2022-08-22T02:44:40.512Z,99700.91
2022-08-22T02:48:01.995Z,99696.19
2022-08-22T02:51:24.113Z,99697.00
2022-08-22T02:54:56.538Z,99700.47
2022-08-22T02:58:30.614Z,99699.41
2022-08-22T03:01:41.620Z,99689.37
2022-08-22T03:04:54.490Z,99689.16
2022-08-22T03:08:21.954Z,99689.16
2022-08-22T03:11:36.114Z,99685.69
2022-08-22T03:15:11.414Z,99692.62
2022-08-22T03:19:07.474Z,99689.50
2022-08-22T03:22:35.554Z,99695.66
2022-08-22T03:26:07.646Z,99695.41
2022-08-22T03:29:21.617Z,99689.97
2022-08-22T03:32:57.413Z,99683.16
2022-08-22T03:36:19.163Z,99686.84
2022-08-22T03:39:52.782Z,99681.16
2022-08-22T03:43:44.775Z,99689.16
2022-08-22T03:47:21.628Z,99685.09
2022-08-22T03:50:55.733Z,99692.25
2022-08-22T03:54:45.395Z,99690.44
2022-08-22T03:58:28.522Z,99694.91
2022-08-22T04:01:46.854Z,99695.94
2022-08-22T04:05:09.090Z,99698.63
2022-08-22T04:09:01.695Z,99698.41
2022-08-22T04:12:11.014Z,99697.38
2022-08-22T04:15:43.594Z,99695.75
2022-08-22T04:19:03.615Z,99693.09
2022-08-22T04:22:30.934Z,99695.75
2022-08-22T04:25:44.975Z,99699.41
2022-08-22T04:28:58.775Z,99692.06
2022-08-22T04:32:21.273Z,99691.25
2022-08-22T04:35:48.592Z,99689.37
2022-08-22T04:39:02.914Z,99690.19
2022-08-22T04:42:32.677Z,99692.84
2022-08-22T04:45:50.753Z,99696.34
2022-08-22T04:49:23.355Z,99702.00
2022-08-22T04:53:07.094Z,99699.59
2022-08-22T04:59:54.296Z,99708.75
2022-08-22T05:03:02.571Z,99706.31
2022-08-22T05:06:09.569Z,99706.53
2022-08-22T05:09:20.432Z,99703.06
2022-08-22T05:12:46.356Z,99708.38
2022-08-22T05:15:57.694Z,99712.44
2022-08-22T05:19:16.464Z,99719.03
2022-08-22T05:22:35.153Z,99720.13
2022-08-22T05:25:44.814Z,99716.66
2022-08-22T05:28:58.814Z,99714.59
2022-08-22T05:32:20.075Z,99718.06
2022-08-22T05:35:49.181Z,99723.62
2022-08-22T05:39:06.714Z,99726.06
2022-08-22T05:42:28.735Z,99739.97
2022-08-22T05:45:36.716Z,99732.19
2022-08-22T05:48:51.713Z,99733.03
2022-08-22T05:52:37.676Z,99739.97
2022-08-22T05:56:17.054Z,99739.53
2022-08-22T05:59:31.636Z,99731.91
2022-08-22T06:03:04.973Z,99748.72
2022-08-22T06:06:25.577Z,99742.84
2022-08-22T06:10:03.578Z,99747.81
2022-08-22T06:13:25.565Z,99745.03
2022-08-22T06:16:59.513Z,99742.37
2022-08-22T06:20:10.373Z,99742.59
2022-08-22T06:23:32.275Z,99747.25
2022-08-22T06:26:48.582Z,99742.16
2022-08-22T06:30:04.168Z,99747.06
2022-08-22T06:33:13.373Z,99748.81
2022-08-22T06:36:35.716Z,99751.84
2022-08-22T06:39:53.387Z,99751.47
2022-08-22T06:43:01.736Z,99757.41
2022-08-22T06:46:11.498Z,99759.06
2022-08-22T06:49:22.270Z,99766.34
2022-08-22T06:52:30.483Z,99768.22
2022-08-22T06:55:47.335Z,99766.13
2022-08-22T06:58:59.954Z,99759.53
2022-08-22T07:02:30.533Z,99769.59
2022-08-22T07:05:42.593Z,99774.25
2022-08-22T07:08:59.094Z,99779.69
2022-08-22T07:12:31.708Z,99782.59
2022-08-22T07:15:43.735Z,99764.84
2022-08-22T07:18:52.655Z,99782.28
2022-08-22T07:22:02.992Z,99783.31
2022-08-22T07:25:20.115Z,99785.63
2022-08-22T07:28:51.178Z,99792.94
2022-08-22T07:32:12.969Z,99793.97
2022-08-22T07:35:25.313Z,99786.88
2022-08-22T07:38:32.816Z,99793.63
2022-08-22T07:42:16.894Z,99793.28
2022-08-22T07:45:41.855Z,99790.00
2022-08-22T07:49:11.635Z,99794.78
2022-08-22T07:52:18.726Z,99791.53
2022-08-22T07:55:26.517Z,99806.72
2022-08-22T07:58:36.719Z,99800.81
2022-08-22T08:01:53.941Z,99794.44
2022-08-22T08:05:01.593Z,99793.38
2022-08-22T08:08:24.613Z,99799.75
2022-08-22T08:11:35.538Z,99791.34
2022-08-22T08:14:55.155Z,99791.06
2022-08-22T08:18:07.774Z,99788.59
2022-08-22T08:21:36.595Z,99791.72
2022-08-22T08:24:45.355Z,99787.72
2022-08-22T08:28:19.033Z,99791.84
2022-08-22T08:31:37.576Z,99792.56
2022-08-22T08:34:51.950Z,99792.19
2022-08-22T08:38:24.194Z,99803.81
2022-08-22T08:41:51.655Z,99802.06
2022-08-22T08:45:23.666Z,99805.81
2022-08-22T08:48:45.096Z,99803.81
2022-08-22T08:52:12.553Z,99808.72
2022-08-22T08:55:56.853Z,99813.25
2022-08-22T08:59:29.159Z,99814.41
2022-08-22T09:03:11.215Z,99822.03
2022-08-22T09:06:50.681Z,99826.19
2022-08-22T09:10:52.596Z,99820.19
2022-08-22T09:14:59.454Z,99825.50
2022-08-22T09:18:38.076Z,99837.59
2022-08-22T09:22:14.193Z,99830.09
2022-08-22T09:25:38.727Z,99830.09
2022-08-22T09:29:04.114Z,99830.00
2022-08-22T09:32:23.712Z,99838.72
2022-08-22T09:36:12.188Z,99839.44
2022-08-22T09:39:28.936Z,99835.81
2022-08-22T09:42:44.987Z,99831.63
2022-08-22T09:46:13.955Z,99830.97
2022-08-22T09:49:50.736Z,99830.56
2022-08-22T09:53:11.312Z,99827.00
2022-08-22T09:56:31.893Z,99833.47
2022-08-22T10:00:06.834Z,99842.22
2022-08-22T10:03:35.352Z,99831.84
2022-08-22T10:07:11.740Z,99826.75
2022-08-22T10:11:00.213Z,99835.41
2022-08-22T10:14:50.644Z,99837.62
2022-08-22T10:18:43.864Z,99847.19
2022-08-22T10:22:39.106Z,99839.97
2022-08-22T10:26:13.495Z,99846.66
2022-08-22T10:30:00.514Z,99842.28
2022-08-22T10:33:17.352Z,99843.97
2022-08-22T10:36:45.694Z,99849.69
2022-08-22T10:40:10.517Z,99846.19
2022-08-22T10:43:45.394Z,99845.66
2022-08-22T10:46:55.135Z,99852.75
2022-08-22T10:50:23.393Z,99859.00
2022-08-22T10:53:59.882Z,99856.81
2022-08-22T10:57:37.214Z,99867.41
2022-08-22T11:00:52.090Z,99864.44
2022-08-22T11:04:35.074Z,99856.41
2022-08-22T11:07:50.383Z,99862.81
2022-08-22T11:11:13.455Z,99852.66
2022-08-22T11:15:07.134Z,99862.38
2022-08-22T11:18:34.593Z,99855.38
2022-08-22T11:21:52.915Z,99863.16
2022-08-22T11:25:36.152Z,99870.22
2022-08-22T11:29:28.638Z,99865.63
2022-08-22T11:33:14.254Z,99871.13
2022-08-22T11:36:32.035Z,99864.72
2022-08-22T11:40:06.621Z,99860.28
2022-08-22T11:43:52.396Z,99865.66
2022-08-22T11:47:00.867Z,99860.06
2022-08-22T11:50:42.076Z,99868.78
2022-08-22T11:54:03.254Z,99862.44
2022-08-22T11:57:35.694Z,99873.41
2022-08-22T12:01:17.245Z,99868.50
2022-08-22T12:04:51.517Z,99883.28
2022-08-22T12:08:42.774Z,99877.16
2022-08-22T12:12:09.400Z,99877.06
2022-08-22T12:15:25.155Z,99876.63
2022-08-22T12:18:33.694Z,99876.28
2022-08-22T12:22:15.036Z,99874.28
2022-08-22T12:25:44.456Z,99867.59
2022-08-22T12:29:15.731Z,99865.41
2022-08-22T12:32:46.495Z,99864.69
2022-08-22T12:36:21.073Z,99871.75
2022-08-22T12:40:05.710Z,99869.59
2022-08-22T12:43:42.747Z,99867.88
2022-08-22T12:47:17.429Z,99870.78
2022-08-22T12:50:42.651Z,99867.88
2022-08-22T12:54:16.355Z,99858.78
2022-08-22T12:57:50.372Z,99853.63
2022-08-22T13:01:12.101Z,99867.38
2022-08-22T13:04:48.114Z,99870.13
2022-08-22T13:08:04.675Z,99878.34
2022-08-22T13:11:23.328Z,99878.06
2022-08-22T13:14:44.115Z,99878.19
2022-08-22T13:17:54.781Z,99876.00
2022-08-22T13:21:04.488Z,99870.44
2022-08-22T13:24:38.876Z,99859.88
2022-08-22T13:27:54.937Z,99858.91
2022-08-22T13:31:06.772Z,99856.28
2022-08-22T13:34:39.445Z,99855.72
2022-08-22T13:38:12.315Z,99858.31
2022-08-22T13:41:44.237Z,99877.53
2022-08-22T13:45:02.983Z,99886.06
2022-08-22T13:48:17.976Z,99879.81
2022-08-22T13:51:57.216Z,99882.59
2022-08-22T13:55:29.667Z,99893.28
2022-08-22T13:58:53.636Z,99885.50
2022-08-22T14:02:19.662Z,99888.06
2022-08-22T14:05:55.174Z,99874.38
2022-08-22T14:09:32.710Z,99872.84
2022-08-22T14:12:58.326Z,99879.97
2022-08-22T14:16:26.038Z,99875.81
2022-08-22T14:19:58.578Z,99875.06
2022-08-22T14:23:42.355Z,99879.50
2022-08-22T14:27:05.569Z,99872.75
2022-08-22T14:30:48.130Z,99880.53
2022-08-22T14:33:59.616Z,99885.66
2022-08-22T14:37:27.590Z,99876.25
2022-08-22T14:40:46.355Z,99876.19
2022-08-22T14:43:57.614Z,99873.22
2022-08-22T14:47:34.445Z,99881.91
2022-08-22T14:50:53.119Z,99889.25
2022-08-22T14:54:30.293Z,99896.44
2022-08-22T14:57:49.118Z,99886.81
2022-08-22T15:01:05.253Z,99896.81
2022-08-22T15:04:21.073Z,99893.09
2022-08-22T15:07:33.254Z,99897.47
2022-08-22T15:10:42.409Z,99898.97
2022-08-22T15:14:18.253Z,99910.09
2022-08-22T15:17:50.732Z,99903.13
2022-08-22T15:21:12.315Z,99899.06
2022-08-22T15:24:22.186Z,99923.78
2022-08-22T15:27:30.513Z,99913.16
2022-08-22T15:30:44.826Z,99904.81
2022-08-22T15:33:53.581Z,99900.97
2022-08-22T15:37:22.637Z,99904.19
2022-08-22T15:40:51.435Z,99901.75
2022-08-22T15:44:32.645Z,99909.97
2022-08-22T15:47:43.822Z,99897.44
2022-08-22T15:51:09.449Z,99892.97
2022-08-22T15:54:25.737Z,99909.19
2022-08-22T15:57:41.493Z,99900.59
2022-08-22T16:01:19.063Z,99895.91
2022-08-22T16:04:50.995Z,99903.31
2022-08-22T16:07:59.912Z,99891.12
2022-08-22T16:11:06.238Z,99893.22
2022-08-22T16:14:24.150Z,99894.03
2022-08-22T16:17:55.837Z,99894.25
2022-08-22T16:21:04.546Z,99894.69
2022-08-22T16:24:12.228Z,99903.06
2022-08-22T16:27:22.761Z,99901.78
2022-08-22T16:30:36.508Z,99904.47
2022-08-22T16:33:45.675Z,99914.88
2022-08-22T16:37:07.218Z,99924.50
2022-08-22T16:40:32.077Z,99916.16
2022-08-22T16:43:54.981Z,99910.47
2022-08-22T16:47:13.786Z,99920.31
2022-08-22T16:50:20.248Z,99915.19
2022-08-22T16:54:07.495Z,99905.22
2022-08-22T16:57:25.256Z,99911.81
2022-08-22T17:00:45.133Z,99908.19
2022-08-22T17:04:24.495Z,99909.44
2022-08-22T17:07:49.212Z,99910.34
2022-08-22T17:11:09.675Z,99896.81
2022-08-22T17:14:43.183Z,99896.22
2022-08-22T17:18:17.634Z,99887.63
2022-08-22T17:21:32.375Z,99887.03
2022-08-22T17:24:48.674Z,99895.25
2022-08-22T17:28:40.474Z,99889.31
2022-08-22T17:32:01.900Z,99904.28
2022-08-22T17:35:28.873Z,99905.09
2022-08-22T17:38:45.415Z,99912.69
2022-08-22T17:42:21.476Z,99926.44
2022-08-22T17:45:52.375Z,99933.41
2022-08-22T17:49:45.399Z,99933.63
2022-08-22T17:53:11.814Z,99928.12
2022-08-22T17:56:42.815Z,99928.97
2022-08-22T18:00:13.614Z,99934.28
2022-08-22T18:03:37.615Z,99924.66
2022-08-22T18:07:03.695Z,99926.72
2022-08-22T18:10:40.954Z,99934.72
2022-08-22T18:14:05.222Z,99930.22
2022-08-22T18:17:46.733Z,99937.59
2022-08-22T18:21:06.934Z,99949.06
2022-08-22T18:24:17.524Z,99958.09
2022-08-22T18:28:09.213Z,99954.63
2022-08-22T18:31:38.863Z,99959.94
2022-08-22T18:35:02.533Z,99953.81
2022-08-22T18:38:58.095Z,99953.81
2022-08-22T18:42:14.174Z,99944.41
2022-08-22T18:45:51.494Z,99949.94
2022-08-22T18:49:15.021Z,99936.50
2022-08-22T18:52:27.031Z,99936.28
2022-08-22T18:56:00.836Z,99940.56
2022-08-22T18:59:37.050Z,99938.94
2022-08-22T19:03:06.513Z,99935.22
2022-08-22T19:06:32.894Z,99945.28
2022-08-22T19:09:59.113Z,99931.53
2022-08-22T19:13:52.922Z,99934.19
2022-08-22T19:17:19.021Z,99942.19
2022-08-22T19:20:51.838Z,99944.84
2022-08-22T19:24:01.091Z,99946.47
2022-08-22T19:27:22.517Z,99947.06
2022-08-22T19:30:47.657Z,99944.41
2022-08-22T19:34:21.296Z,99948.69
2022-08-22T19:37:33.686Z,99945.44
2022-08-22T19:40:55.996Z,99935.81
2022-08-22T19:44:07.236Z,99932.94
2022-08-22T19:47:33.917Z,99932.72
2022-08-22T19:50:41.700Z,99929.25
2022-08-22T19:53:59.977Z,99930.88
2022-08-22T19:57:30.868Z,99930.66
2022-08-22T20:01:03.693Z,99934.94
2022-08-22T20:04:26.717Z,99939.22
2022-08-22T20:07:55.996Z,99937.97
2022-08-22T20:11:25.556Z,99945.75
2022-08-22T20:14:45.036Z,99951.66
2022-08-22T20:21:50.235Z,99952.25
2022-08-22T20:25:20.701Z,99952.63
2022-08-22T20:28:54.597Z,99941.59
2022-08-22T20:32:04.397Z,99938.50
2022-08-22T20:35:22.895Z,99933.75
2022-08-22T20:38:55.529Z,99928.44
2022-08-22T20:42:08.421Z,99932.13
2022-08-22T20:45:16.752Z,99929.25
2022-08-22T20:48:23.639Z,99934.56
2022-08-22T20:51:41.116Z,99932.75
2022-08-22T20:55:08.710Z,99926.00
2022-08-22T20:58:26.917Z,99924.16
2022-08-22T21:01:34.889Z,99933.97
2022-08-22T21:04:52.707Z,99917.78
2022-08-22T21:08:28.815Z,99911.66
2022-08-22T21:11:47.336Z,99897.28
2022-08-22T21:14:56.580Z,99902.25
2022-08-22T21:18:03.140Z,99907.13
2022-08-22T21:21:18.142Z,99909.78
2022-08-22T21:24:27.037Z,99909.78
2022-08-22T21:27:35.636Z,99911.44
2022-08-22T21:30:41.801Z,99910.41
2022-08-22T21:34:01.143Z,99913.91
2022-08-22T21:37:28.409Z,99925.59
2022-08-22T21:40:38.732Z,99914.12
2022-08-22T21:43:48.214Z,99924.78
2022-08-22T21:47:31.786Z,99913.28
2022-08-22T21:50:39.697Z,99913.06
2022-08-22T21:53:45.616Z,99914.94
2022-08-22T21:56:52.288Z,99926.59
2022-08-22T21:59:59.962Z,99921.88
2022-08-22T22:03:07.875Z,99927.22
2022-08-22T22:06:14.677Z,99923.72
2022-08-22T22:09:23.817Z,99923.94
2022-08-22T22:12:31.911Z,99924.97
2022-08-22T22:15:54.614Z,99929.25
2022-08-22T22:19:02.260Z,99936.44
2022-08-22T22:22:10.022Z,99934.56
2022-08-22T22:25:39.737Z,99940.13
2022-08-22T22:29:00.011Z,99937.47
2022-08-22T22:32:06.170Z,99939.91
2022-08-22T22:35:19.748Z,99940.94
2022-08-22T22:38:27.067Z,99939.91
2022-08-22T22:41:33.273Z,99937.25
2022-08-22T22:44:39.290Z,99939.09
2022-08-22T22:47:50.280Z,99939.09
2022-08-22T22:50:57.216Z,99945.03
2022-08-22T22:54:05.016Z,99939.91
2022-08-22T22:57:12.463Z,99935.62
2022-08-22T23:00:39.164Z,99933.75
2022-08-22T23:03:47.176Z,99946.06
2022-08-22T23:06:56.154Z,99951.41
2022-08-22T23:10:03.057Z,99947.87
2022-08-22T23:13:10.614Z,99951.41
2022-08-22T23:16:22.675Z,99956.50
2022-08-22T23:19:30.374Z,99952.00
2022-08-22T23:22:37.515Z,99954.66
2022-08-22T23:25:44.135Z,99955.69
2022-08-22T23:28:52.247Z,99954.66
2022-08-22T23:32:10.496Z,99955.25
2022-08-22T23:35:18.372Z,99954.22
2022-08-22T23:38:24.966Z,99962.41
2022-08-22T23:41:31.936Z,99954.44
2022-08-22T23:44:44.396Z,99956.88
2022-08-22T23:47:51.309Z,99955.84
2022-08-22T23:50:57.479Z,99948.88
2022-08-22T23:54:04.640Z,99942.75
2022-08-22T23:57:12.755Z,99943.56
